createdAt,value
2018-09-01T00:00:40.983Z,8.13
2018-09-01T00:03:08.388Z,8.23
2018-09-01T00:05:35.541Z,8.30
2018-09-01T00:08:02.719Z,7.43
2018-09-01T00:10:29.885Z,7.97
2018-09-01T00:12:57.089Z,8.50
2018-09-01T00:15:24.550Z,7.73
2018-09-01T00:17:51.743Z,7.80
2018-09-01T00:20:18.905Z,7.20
2018-09-01T00:22:46.051Z,7.90
2018-09-01T00:25:13.206Z,7.70
2018-09-01T00:27:40.350Z,7.53
2018-09-01T00:30:07.536Z,7.17
2018-09-01T00:32:34.671Z,7.57
2018-09-01T00:35:01.824Z,8.07
2018-09-01T00:38:36.637Z,6.70
2018-09-01T00:41:03.808Z,7.23
2018-09-01T00:43:30.945Z,7.17
2018-09-01T00:45:58.069Z,7.50
2018-09-01T00:48:25.220Z,6.90
2018-09-01T00:50:52.337Z,6.93
2018-09-01T00:53:19.526Z,6.60
2018-09-01T00:55:46.684Z,6.10
2018-09-01T00:58:13.800Z,6.87
2018-09-01T01:00:41.188Z,6.07
2018-09-01T01:03:08.329Z,6.20
2018-09-01T01:05:35.484Z,6.50
2018-09-01T01:08:02.652Z,6.43
2018-09-01T01:10:29.783Z,6.40
2018-09-01T01:12:56.952Z,6.80
2018-09-01T01:15:24.113Z,6.67
2018-09-01T01:17:51.281Z,6.80
2018-09-01T01:20:18.474Z,8.10
2018-09-01T01:22:45.620Z,7.33
2018-09-01T01:25:12.777Z,6.63
2018-09-01T01:27:39.917Z,6.87
2018-09-01T01:30:07.120Z,6.97
2018-09-01T01:32:34.593Z,7.37
2018-09-01T01:35:02.704Z,7.20
2018-09-01T01:37:30.225Z,6.37
2018-09-01T01:39:57.412Z,7.00
2018-09-01T01:42:24.638Z,6.90
2018-09-01T01:44:51.808Z,6.73
2018-09-01T01:47:19.185Z,6.17
2018-09-01T01:49:46.329Z,6.47
2018-09-01T01:52:13.480Z,7.10
2018-09-01T01:54:40.590Z,6.93
2018-09-01T01:57:07.731Z,7.33
2018-09-01T01:59:34.896Z,7.30
2018-09-01T02:02:02.293Z,7.20
2018-09-01T02:04:29.592Z,7.73
2018-09-01T02:06:56.874Z,7.33
2018-09-01T02:09:24.042Z,6.90
2018-09-01T02:11:51.223Z,6.73
2018-09-01T02:14:18.354Z,7.63
2018-09-01T02:16:45.506Z,6.47
2018-09-01T02:19:12.641Z,7.63
2018-09-01T02:21:39.773Z,6.93
2018-09-01T02:24:06.996Z,7.40
2018-09-01T02:26:34.399Z,7.13
2018-09-01T02:29:01.580Z,6.27
2018-09-01T02:31:28.742Z,6.80
2018-09-01T02:33:55.866Z,7.13
2018-09-01T02:36:23.056Z,7.33
2018-09-01T02:38:50.197Z,6.77
2018-09-01T02:41:17.343Z,6.30
2018-09-01T02:43:44.453Z,6.57
2018-09-01T02:46:11.603Z,6.73
2018-09-01T02:48:38.768Z,6.33
2018-09-01T02:51:05.901Z,6.20
2018-09-01T02:53:33.048Z,6.00
2018-09-01T02:56:00.211Z,6.43
2018-09-01T02:58:27.376Z,6.80
2018-09-01T03:01:00.220Z,6.93
2018-09-01T03:03:27.355Z,6.93
2018-09-01T03:05:54.476Z,5.80
2018-09-01T03:08:21.655Z,6.50
2018-09-01T03:10:48.772Z,5.83
2018-09-01T03:13:15.956Z,6.17
2018-09-01T03:15:43.111Z,6.20
2018-09-01T03:18:10.236Z,6.50
2018-09-01T03:20:37.420Z,5.30
2018-09-01T03:23:05.370Z,5.53
2018-09-01T03:25:32.493Z,6.23
2018-09-01T03:27:59.637Z,5.93
2018-09-01T03:30:26.740Z,5.70
2018-09-01T03:32:53.895Z,5.97
2018-09-01T03:35:21.028Z,6.23
2018-09-01T03:37:48.142Z,5.77
2018-09-01T03:40:15.300Z,5.50
2018-09-01T03:42:42.457Z,5.50
2018-09-01T03:45:09.583Z,5.83
2018-09-01T03:47:36.677Z,5.60
2018-09-01T03:50:03.956Z,5.97
2018-09-01T03:52:31.091Z,5.17
2018-09-01T03:54:58.190Z,5.73
2018-09-01T03:57:25.324Z,5.60
2018-09-01T03:59:52.422Z,6.03
2018-09-01T04:02:19.568Z,6.50
2018-09-01T04:04:46.677Z,5.13
2018-09-01T04:07:13.866Z,6.07
2018-09-01T04:09:41.036Z,5.03
2018-09-01T04:12:08.136Z,5.73
2018-09-01T04:14:35.279Z,5.30
2018-09-01T04:17:02.396Z,6.27
2018-09-01T04:19:29.524Z,4.90
2018-09-01T04:21:56.640Z,5.20
2018-09-01T04:24:23.736Z,5.67
2018-09-01T04:26:50.883Z,4.77
2018-09-01T04:29:18.052Z,4.87
2018-09-01T04:31:45.794Z,5.57
2018-09-01T04:34:12.961Z,4.63
2018-09-01T04:36:40.093Z,5.83
2018-09-01T04:39:08.247Z,4.77
2018-09-01T04:41:35.424Z,5.17
2018-09-01T04:44:02.548Z,4.67
2018-09-01T04:46:29.713Z,4.83
2018-09-01T04:48:56.844Z,4.67
2018-09-01T04:51:23.957Z,4.17
2018-09-01T04:53:51.179Z,4.70
2018-09-01T04:56:18.317Z,4.40
2018-09-01T04:58:45.461Z,4.60
2018-09-01T05:01:12.737Z,4.60
2018-09-01T05:03:39.709Z,4.23
2018-09-01T05:06:06.865Z,4.67
2018-09-01T05:08:33.988Z,4.40
2018-09-01T05:11:01.169Z,4.33
2018-09-01T05:13:28.324Z,5.10
2018-09-01T05:15:55.476Z,3.97
2018-09-01T05:18:22.643Z,4.97
2018-09-01T05:20:49.786Z,4.00
2018-09-01T05:23:16.960Z,4.53
2018-09-01T05:25:44.143Z,3.70
2018-09-01T05:28:11.312Z,3.97
2018-09-01T05:30:38.444Z,4.23
2018-09-01T05:33:05.644Z,4.17
2018-09-01T05:35:32.778Z,3.80
2018-09-01T05:37:59.936Z,3.97
2018-09-01T05:40:27.094Z,3.80
2018-09-01T05:42:54.249Z,4.10
2018-09-01T05:45:21.414Z,4.37
2018-09-01T05:47:48.531Z,4.07
2018-09-01T05:50:15.861Z,4.23
2018-09-01T05:52:43.020Z,4.13
2018-09-01T05:55:10.140Z,3.70
2018-09-01T05:57:37.296Z,3.97
2018-09-01T06:00:05.396Z,3.53
2018-09-01T06:02:32.553Z,3.83
2018-09-01T06:04:59.729Z,3.53
2018-09-01T06:07:26.921Z,3.27
2018-09-01T06:09:54.044Z,3.47
2018-09-01T06:12:21.196Z,3.10
2018-09-01T06:14:48.337Z,3.17
2018-09-01T06:17:15.502Z,3.30
2018-09-01T06:19:42.648Z,3.10
2018-09-01T06:22:09.761Z,2.87
2018-09-01T06:24:36.924Z,2.97
2018-09-01T06:27:10.813Z,2.90
2018-09-01T06:29:38.011Z,2.93
2018-09-01T06:32:06.306Z,3.40
2018-09-01T06:34:33.469Z,2.83
2018-09-01T06:37:00.588Z,3.40
2018-09-01T06:39:27.720Z,3.87
2018-09-01T06:41:54.864Z,2.83
2018-09-01T06:44:21.969Z,2.60
2018-09-01T06:46:49.100Z,3.07
2018-09-01T06:49:16.228Z,3.10
2018-09-01T06:51:43.396Z,3.37
2018-09-01T06:54:11.141Z,2.67
2018-09-01T06:56:38.269Z,2.50
2018-09-01T06:59:05.443Z,2.23
2018-09-01T07:01:32.873Z,2.67
2018-09-01T07:04:00.076Z,3.20
2018-09-01T07:06:27.216Z,2.33
2018-09-01T07:08:54.487Z,2.47
2018-09-01T07:11:21.500Z,2.83
2018-09-01T07:13:48.740Z,2.67
2018-09-01T07:16:15.897Z,2.60
2018-09-01T07:18:43.257Z,2.60
2018-09-01T07:21:10.415Z,2.50
2018-09-01T07:23:37.556Z,3.23
2018-09-01T07:26:04.705Z,2.95
2018-09-01T07:28:31.816Z,2.30
2018-09-01T07:30:59.362Z,2.30
2018-09-01T07:33:26.091Z,2.30
2018-09-01T07:35:53.247Z,2.20
2018-09-01T07:38:20.385Z,2.40
2018-09-01T07:40:47.576Z,2.62
2018-09-01T07:43:14.722Z,2.02
2018-09-01T07:45:41.871Z,2.20
2018-09-01T07:48:09.024Z,1.75
2018-09-01T07:50:36.152Z,2.27
2018-09-01T07:53:03.304Z,2.20
2018-09-01T07:55:30.456Z,1.95
2018-09-01T07:57:57.596Z,1.87
2018-09-01T08:00:24.745Z,2.08
2018-09-01T08:02:51.899Z,1.85
2018-09-01T08:05:19.065Z,2.40
2018-09-01T08:07:46.200Z,1.82
2018-09-01T08:10:13.375Z,1.77
2018-09-01T08:12:40.503Z,1.92
2018-09-01T08:15:08.112Z,2.25
2018-09-01T08:17:35.313Z,2.12
2018-09-01T08:20:02.490Z,2.02
2018-09-01T08:22:29.616Z,1.80
2018-09-01T08:24:56.756Z,2.37
2018-09-01T08:27:23.942Z,1.95
2018-09-01T08:29:51.152Z,1.77
2018-09-01T08:32:18.245Z,1.75
2018-09-01T08:34:45.395Z,1.85
2018-09-01T08:37:12.613Z,1.72
2018-09-01T08:39:39.724Z,2.00
2018-09-01T08:42:06.872Z,2.15
2018-09-01T08:44:33.980Z,1.52
2018-09-01T08:47:01.124Z,2.02
2018-09-01T08:49:28.248Z,1.90
2018-09-01T08:51:55.469Z,1.45
2018-09-01T08:54:22.610Z,1.98
2018-09-01T08:56:49.721Z,1.72
2018-09-01T08:59:16.863Z,2.00
2018-09-01T09:01:43.981Z,1.85
2018-09-01T09:04:11.115Z,1.85
2018-09-01T09:06:38.229Z,1.77
2018-09-01T09:09:05.581Z,1.75
2018-09-01T09:11:32.754Z,1.62
2018-09-01T09:13:59.833Z,1.70
2018-09-01T09:16:27.005Z,1.90
2018-09-01T09:18:54.169Z,2.17
2018-09-01T09:21:21.341Z,1.90
2018-09-01T09:23:48.491Z,2.02
2018-09-01T09:26:15.624Z,1.90
2018-09-01T09:28:42.759Z,2.25
2018-09-01T09:31:09.880Z,1.87
2018-09-01T09:33:37.024Z,2.25
2018-09-01T09:36:04.175Z,1.62
2018-09-01T09:38:31.376Z,1.90
2018-09-01T09:40:58.532Z,1.90
2018-09-01T09:43:25.637Z,2.00
2018-09-01T09:45:53.248Z,1.77
2018-09-01T09:48:20.377Z,2.05
2018-09-01T09:50:47.529Z,1.87
2018-09-01T09:53:14.628Z,1.87
2018-09-01T09:55:41.774Z,1.90
2018-09-01T09:58:08.968Z,2.20
2018-09-01T10:00:41.882Z,1.90
2018-09-01T10:03:09.049Z,1.80
2018-09-01T10:05:36.238Z,1.90
2018-09-01T10:08:03.365Z,1.72
2018-09-01T10:10:30.474Z,1.52
2018-09-01T10:12:57.752Z,1.80
2018-09-01T10:15:24.920Z,1.77
2018-09-01T10:17:52.277Z,2.37
2018-09-01T10:20:19.556Z,1.82
2018-09-01T10:22:46.549Z,1.60
2018-09-01T10:25:13.666Z,1.67
2018-09-01T10:27:40.838Z,2.60
2018-09-01T10:30:08.049Z,1.50
2018-09-01T10:32:35.200Z,1.80
2018-09-01T10:35:02.340Z,1.90
2018-09-01T10:37:29.494Z,2.42
2018-09-01T10:39:56.640Z,1.90
2018-09-01T10:42:23.770Z,1.90
2018-09-01T10:44:50.920Z,2.52
2018-09-01T10:47:18.045Z,1.90
2018-09-01T10:49:45.199Z,1.92
2018-09-01T10:52:12.352Z,2.10
2018-09-01T10:54:39.532Z,2.10
2018-09-01T10:57:06.689Z,2.37
2018-09-01T10:59:33.985Z,1.95
2018-09-01T11:02:00.980Z,2.27
2018-09-01T11:04:28.316Z,1.85
2018-09-01T11:06:55.525Z,2.55
2018-09-01T11:09:22.636Z,1.60
2018-09-01T11:11:49.756Z,2.12
2018-09-01T11:14:17.119Z,2.22
2018-09-01T11:16:44.278Z,1.90
2018-09-01T11:19:11.451Z,1.92
2018-09-01T11:21:38.611Z,1.60
2018-09-01T11:24:05.801Z,1.90
2018-09-01T11:26:32.976Z,2.05
2018-09-01T11:29:00.089Z,1.80
2018-09-01T11:31:27.240Z,1.67
2018-09-01T11:33:54.413Z,2.15
2018-09-01T11:36:21.568Z,1.92
2018-09-01T11:38:48.669Z,2.10
2018-09-01T11:41:15.785Z,2.10
2018-09-01T11:43:42.936Z,2.22
2018-09-01T11:46:10.066Z,1.82
2018-09-01T11:48:37.252Z,2.02
2018-09-01T11:51:04.600Z,1.95
2018-09-01T11:53:31.712Z,2.00
2018-09-01T11:55:58.843Z,1.90
2018-09-01T11:58:25.965Z,2.17
2018-09-01T12:00:53.163Z,1.65
2018-09-01T12:03:20.270Z,2.02
2018-09-01T12:05:47.413Z,2.00
2018-09-01T12:08:14.525Z,1.95
2018-09-01T12:10:41.747Z,1.80
2018-09-01T12:13:08.920Z,1.90
2018-09-01T12:15:36.064Z,2.00
2018-09-01T12:18:03.660Z,2.02
2018-09-01T12:20:30.765Z,1.90
2018-09-01T12:22:57.914Z,2.02
2018-09-01T12:25:25.043Z,1.95
2018-09-01T12:27:52.156Z,2.30
2018-09-01T12:30:19.304Z,2.08
2018-09-01T12:32:46.445Z,2.47
2018-09-01T12:35:13.650Z,1.92
2018-09-01T12:37:40.857Z,2.40
2018-09-01T12:40:07.996Z,1.90
2018-09-01T12:42:35.148Z,2.20
2018-09-01T12:45:02.269Z,1.80
2018-09-01T12:47:29.412Z,2.12
2018-09-01T12:49:56.517Z,2.20
2018-09-01T12:52:23.621Z,2.05
2018-09-01T12:54:50.725Z,1.85
2018-09-01T12:57:17.852Z,2.20
2018-09-01T12:59:45.091Z,1.90
2018-09-01T13:02:16.847Z,1.85
2018-09-01T13:04:44.113Z,2.45
2018-09-01T13:07:11.280Z,1.90
2018-09-01T13:09:38.389Z,1.92
2018-09-01T13:12:05.505Z,1.60
2018-09-01T13:14:32.605Z,9.18
2018-09-01T13:17:05.541Z,2.00
2018-09-01T13:19:32.697Z,1.70
2018-09-01T13:21:59.778Z,1.85
2018-09-01T13:24:26.968Z,2.55
2018-09-01T13:26:54.077Z,2.10
2018-09-01T13:29:21.240Z,1.87
2018-09-01T13:31:48.372Z,1.77
2018-09-01T13:34:15.683Z,1.72
2018-09-01T13:36:42.840Z,1.85
2018-09-01T13:39:09.942Z,1.80
2018-09-01T13:41:37.084Z,2.17
2018-09-01T13:44:04.449Z,2.10
2018-09-01T13:46:31.602Z,2.00
2018-09-01T13:48:58.721Z,1.90
2018-09-01T13:51:25.832Z,1.82
2018-09-01T13:53:52.979Z,1.98
2018-09-01T13:56:20.113Z,1.55
2018-09-01T13:58:47.256Z,1.77
2018-09-01T14:01:14.393Z,1.95
2018-09-01T14:03:41.532Z,1.80
2018-09-01T14:06:08.628Z,1.80
2018-09-01T14:08:35.745Z,1.92
2018-09-01T14:11:02.928Z,2.02
2018-09-01T14:13:30.058Z,2.02
2018-09-01T14:15:57.208Z,2.15
2018-09-01T14:18:24.324Z,2.12
2018-09-01T14:20:51.460Z,2.08
2018-09-01T14:23:18.627Z,2.00
2018-09-01T14:25:45.728Z,1.82
2018-09-01T14:28:12.916Z,1.98
2018-09-01T14:30:40.050Z,2.17
2018-09-01T14:33:07.251Z,1.98
2018-09-01T14:35:34.337Z,2.17
2018-09-01T14:38:01.500Z,2.65
2018-09-01T14:40:28.651Z,2.20
2018-09-01T14:42:55.772Z,2.30
2018-09-01T14:45:22.940Z,2.33
2018-09-01T14:47:50.073Z,2.35
2018-09-01T14:50:17.229Z,2.10
2018-09-01T14:52:44.349Z,1.87
2018-09-01T14:55:11.521Z,1.60
2018-09-01T14:57:38.649Z,1.80
2018-09-01T15:00:06.128Z,2.60
2018-09-01T15:02:33.456Z,2.25
2018-09-01T15:05:00.608Z,2.12
2018-09-01T15:07:27.733Z,1.82
2018-09-01T15:09:54.901Z,2.12
2018-09-01T15:12:22.052Z,2.60
2018-09-01T15:14:49.220Z,2.12
2018-09-01T15:17:16.345Z,1.75
2018-09-01T15:19:43.492Z,2.02
2018-09-01T15:22:10.622Z,2.37
2018-09-01T15:24:37.741Z,2.17
2018-09-01T15:27:04.936Z,2.30
2018-09-01T15:29:32.082Z,2.10
2018-09-01T15:31:59.227Z,2.08
2018-09-01T15:34:26.421Z,2.02
2018-09-01T15:36:53.523Z,2.17
2018-09-01T15:39:20.646Z,2.62
2018-09-01T15:41:47.757Z,2.60
2018-09-01T15:44:15.240Z,2.37
2018-09-01T15:46:42.369Z,2.20
2018-09-01T15:49:09.477Z,3.02
2018-09-01T15:51:36.630Z,2.00
2018-09-01T15:54:03.802Z,2.70
2018-09-01T15:56:31.068Z,2.20
2018-09-01T15:58:58.121Z,2.35
2018-09-01T16:01:25.283Z,2.45
2018-09-01T16:03:52.409Z,2.40
2018-09-01T16:06:19.526Z,2.77
2018-09-01T16:08:46.656Z,2.37
2018-09-01T16:11:13.818Z,2.20
2018-09-01T16:13:40.944Z,2.65
2018-09-01T16:16:08.155Z,2.22
2018-09-01T16:18:35.285Z,2.30
2018-09-01T16:21:02.451Z,2.47
2018-09-01T16:23:29.545Z,2.12
2018-09-01T16:25:56.764Z,2.40
2018-09-01T16:28:23.883Z,2.20
2018-09-01T16:30:51.307Z,2.12
2018-09-01T16:33:18.441Z,2.50
2018-09-01T16:35:45.553Z,2.35
2018-09-01T16:38:12.648Z,2.58
2018-09-01T16:40:39.817Z,2.35
2018-09-01T16:43:06.967Z,3.58
2018-09-01T16:45:34.084Z,2.62
2018-09-01T16:48:01.227Z,2.25
2018-09-01T16:50:28.361Z,2.20
2018-09-01T16:52:55.466Z,2.40
2018-09-01T16:55:22.581Z,2.08
2018-09-01T16:57:49.680Z,2.10
2018-09-01T17:00:16.836Z,2.20
2018-09-01T17:02:43.944Z,1.92
2018-09-01T17:05:11.092Z,1.82
2018-09-01T17:07:38.252Z,2.17
2018-09-01T17:10:05.429Z,1.92
2018-09-01T17:12:32.582Z,2.10
2018-09-01T17:14:59.794Z,2.15
2018-09-01T17:17:26.928Z,2.37
2018-09-01T17:19:54.028Z,2.52
2018-09-01T17:22:21.197Z,2.02
2018-09-01T17:24:48.296Z,2.00
2018-09-01T17:27:15.460Z,2.20
2018-09-01T17:29:42.582Z,3.00
2018-09-01T17:32:09.762Z,2.10
2018-09-01T17:34:36.944Z,2.42
2018-09-01T17:37:04.113Z,2.33
2018-09-01T17:39:31.255Z,2.10
2018-09-01T17:41:58.405Z,2.00
2018-09-01T17:44:25.536Z,2.40
2018-09-01T17:46:52.660Z,2.50
2018-09-01T17:49:19.826Z,2.50
2018-09-01T17:51:46.935Z,1.92
2018-09-01T17:54:14.082Z,2.27
2018-09-01T17:56:41.475Z,2.10
2018-09-01T17:59:08.408Z,2.20
2018-09-01T18:01:35.565Z,2.20
2018-09-01T18:04:02.715Z,2.10
2018-09-01T18:06:29.854Z,2.50
2018-09-01T18:08:57.000Z,2.20
2018-09-01T18:11:24.136Z,2.60
2018-09-01T18:13:51.317Z,2.70
2018-09-01T18:16:18.464Z,2.40
2018-09-01T18:18:45.588Z,2.87
2018-09-01T18:21:12.762Z,2.53
2018-09-01T18:23:39.949Z,2.67
2018-09-01T18:26:07.137Z,2.47
2018-09-01T18:28:34.332Z,2.57
2018-09-01T18:31:01.636Z,2.20
2018-09-01T18:33:28.800Z,3.10
2018-09-01T18:35:56.008Z,2.70
2018-09-01T18:38:23.105Z,2.43
2018-09-01T18:40:50.226Z,2.83
2018-09-01T18:43:17.384Z,2.98
2018-09-01T18:45:44.829Z,3.13
2018-09-01T18:48:11.990Z,2.87
2018-09-01T18:50:39.345Z,2.70
2018-09-01T18:53:06.740Z,2.67
2018-09-01T18:55:33.876Z,2.87
2018-09-01T18:58:01.340Z,2.77
2018-09-01T19:00:28.454Z,2.60
2018-09-01T19:02:55.618Z,2.50
2018-09-01T19:05:22.764Z,2.50
2018-09-01T19:07:49.900Z,2.93
2018-09-01T19:10:17.034Z,2.63
2018-09-01T19:12:44.186Z,2.60
2018-09-01T19:15:11.364Z,2.37
2018-09-01T19:17:38.521Z,3.20
2018-09-01T19:20:05.681Z,3.03
2018-09-01T19:22:32.875Z,2.97
2018-09-01T19:25:00.047Z,2.97
2018-09-01T19:27:27.235Z,3.12
2018-09-01T19:29:54.453Z,3.23
2018-09-01T19:32:21.613Z,3.27
2018-09-01T19:34:48.796Z,3.20
2018-09-01T19:37:15.927Z,4.00
2018-09-01T19:39:43.115Z,3.33
2018-09-01T19:42:10.250Z,3.37
2018-09-01T19:44:37.433Z,3.07
2018-09-01T19:47:04.878Z,3.27
2018-09-01T19:49:32.023Z,3.70
2018-09-01T19:51:59.171Z,3.20
2018-09-01T19:54:26.366Z,3.33
2018-09-01T19:56:53.493Z,3.43
2018-09-01T19:59:20.604Z,3.10
2018-09-01T20:01:47.724Z,2.90
2018-09-01T20:04:14.948Z,3.23
2018-09-01T20:06:42.114Z,2.90
2018-09-01T20:09:09.251Z,3.30
2018-09-01T20:11:36.360Z,4.00
2018-09-01T20:14:03.529Z,4.30
2018-09-01T20:16:30.634Z,4.60
2018-09-01T20:18:58.090Z,3.40
2018-09-01T20:21:25.247Z,2.50
2018-09-01T20:23:52.400Z,3.07
2018-09-01T20:26:19.525Z,2.90
2018-09-01T20:28:46.702Z,3.07
2018-09-01T20:31:13.893Z,3.13
2018-09-01T20:33:41.052Z,2.70
2018-09-01T20:36:14.933Z,2.57
2018-09-01T20:38:42.600Z,2.83
2018-09-01T20:41:09.801Z,2.73
2018-09-01T20:43:36.908Z,2.50
2018-09-01T20:46:04.055Z,3.00
2018-09-01T20:48:31.213Z,3.13
2018-09-01T20:50:58.365Z,3.30
2018-09-01T20:53:25.540Z,3.07
2018-09-01T20:55:52.673Z,2.80
2018-09-01T20:58:19.804Z,2.83
2018-09-01T21:00:46.952Z,2.70
2018-09-01T21:03:14.145Z,3.20
2018-09-01T21:05:41.289Z,2.33
2018-09-01T21:08:08.432Z,2.80
2018-09-01T21:10:35.572Z,2.67
2018-09-01T21:13:02.720Z,3.83
2018-09-01T21:15:29.858Z,2.97
2018-09-01T21:17:57.033Z,2.70
2018-09-01T21:20:24.253Z,2.87
2018-09-01T21:22:51.392Z,3.07
2018-09-01T21:25:18.534Z,3.00
2018-09-01T21:27:45.644Z,2.47
2018-09-01T21:30:12.828Z,2.90
2018-09-01T21:32:39.946Z,2.80
2018-09-01T21:35:07.117Z,2.50
2018-09-01T21:37:34.224Z,3.20
2018-09-01T21:40:01.384Z,3.27
2018-09-01T21:42:28.546Z,2.87
2018-09-01T21:44:55.697Z,3.17
2018-09-01T21:47:22.882Z,2.80
2018-09-01T21:49:50.027Z,3.00
2018-09-01T21:52:17.185Z,2.97
2018-09-01T21:54:44.340Z,2.70
2018-09-01T21:57:11.564Z,3.13
2018-09-01T21:59:38.652Z,2.80
2018-09-01T22:02:11.565Z,3.30
2018-09-01T22:04:44.587Z,3.00
2018-09-01T22:07:11.762Z,2.80
2018-09-01T22:09:38.930Z,3.00
2018-09-01T22:12:06.060Z,3.10
2018-09-01T22:14:33.216Z,3.30
2018-09-01T22:17:00.587Z,2.83
2018-09-01T22:19:27.717Z,2.93
2018-09-01T22:21:54.864Z,3.00
2018-09-01T22:24:21.990Z,2.63
2018-09-01T22:26:49.132Z,2.93
2018-09-01T22:29:16.312Z,2.63
2018-09-01T22:31:43.494Z,2.77
2018-09-01T22:34:10.661Z,3.17
2018-09-01T22:36:37.789Z,3.20
2018-09-01T22:39:05.285Z,2.80
2018-09-01T22:41:32.436Z,3.17
2018-09-01T22:43:59.579Z,3.47
2018-09-01T22:46:26.779Z,3.00
2018-09-01T22:48:53.904Z,3.40
2018-09-01T22:51:21.064Z,2.80
2018-09-01T22:53:48.168Z,3.10
2018-09-01T22:56:15.353Z,2.87
2018-09-01T22:58:42.488Z,3.30
2018-09-01T23:01:09.614Z,3.77
2018-09-01T23:03:36.771Z,3.30
2018-09-01T23:06:03.942Z,3.30
2018-09-01T23:08:31.084Z,3.77
2018-09-01T23:10:58.233Z,3.00
2018-09-01T23:13:25.408Z,3.23
2018-09-01T23:15:52.571Z,3.30
2018-09-01T23:18:19.692Z,4.10
2018-09-01T23:20:46.893Z,3.23
2018-09-01T23:23:14.025Z,3.20
2018-09-01T23:25:41.220Z,3.13
2018-09-01T23:28:08.391Z,2.90
2018-09-01T23:30:35.594Z,3.00
2018-09-01T23:33:02.747Z,2.90
2018-09-01T23:35:29.868Z,3.10
2018-09-01T23:37:57.028Z,3.30
2018-09-01T23:40:24.203Z,2.93
2018-09-01T23:42:51.356Z,3.10
2018-09-01T23:45:18.497Z,4.00
2018-09-01T23:47:45.639Z,3.67
2018-09-01T23:50:12.833Z,3.20
2018-09-01T23:52:39.978Z,3.47
2018-09-01T23:55:07.179Z,3.40
2018-09-01T23:57:34.325Z,3.50
